createdAt,value
2022-12-26T00:00:19.275Z,18.83
2022-12-26T00:02:45.766Z,19.20
2022-12-26T00:05:12.328Z,17.67
2022-12-26T00:07:38.673Z,18.30
2022-12-26T00:10:05.528Z,18.87
2022-12-26T00:12:31.905Z,16.70
2022-12-26T00:14:58.246Z,18.93
2022-12-26T00:17:24.584Z,18.27
2022-12-26T00:19:50.927Z,17.27
2022-12-26T00:22:18.250Z,16.97
2022-12-26T00:24:44.588Z,17.23
2022-12-26T00:27:10.915Z,15.80
2022-12-26T00:29:37.252Z,15.97
2022-12-26T00:32:03.846Z,15.40
2022-12-26T00:34:30.206Z,14.00
2022-12-26T00:36:56.544Z,13.77
2022-12-26T00:39:22.855Z,14.40
2022-12-26T00:41:49.199Z,15.17
2022-12-26T00:44:15.539Z,14.90
2022-12-26T00:46:42.021Z,13.73
2022-12-26T00:49:08.416Z,13.80
2022-12-26T00:51:34.740Z,15.00
2022-12-26T00:54:01.083Z,14.40
2022-12-26T00:56:27.436Z,13.13
2022-12-26T00:58:53.819Z,11.63
2022-12-26T01:01:22.888Z,13.30
2022-12-26T01:03:50.528Z,12.20
2022-12-26T01:06:17.376Z,13.13
2022-12-26T01:08:44.428Z,13.17
2022-12-26T01:11:13.607Z,12.73
2022-12-26T01:13:39.938Z,13.97
2022-12-26T01:16:07.342Z,14.37
2022-12-26T01:18:34.339Z,13.80
2022-12-26T01:21:10.355Z,13.27
2022-12-26T01:23:36.748Z,13.30
2022-12-26T01:26:16.652Z,13.57
2022-12-26T01:28:47.673Z,13.10
2022-12-26T01:31:14.081Z,13.53
2022-12-26T01:33:40.500Z,11.77
2022-12-26T01:36:06.962Z,13.43
2022-12-26T01:38:33.296Z,12.77
2022-12-26T01:41:29.838Z,12.50
2022-12-26T01:44:02.839Z,14.10
2022-12-26T01:46:39.662Z,13.70
2022-12-26T01:49:15.167Z,14.67
2022-12-26T01:51:46.352Z,13.87
2022-12-26T01:54:38.310Z,13.33
2022-12-26T01:57:04.030Z,13.27
2022-12-26T01:59:35.359Z,13.23
2022-12-26T02:02:01.985Z,13.90
2022-12-26T02:04:59.245Z,13.77
2022-12-26T02:07:26.450Z,13.13
2022-12-26T02:09:53.195Z,13.50
2022-12-26T02:12:40.887Z,12.73
2022-12-26T02:15:13.331Z,13.40
2022-12-26T02:17:41.247Z,13.37
2022-12-26T02:20:20.742Z,13.90
2022-12-26T02:23:01.436Z,13.77
2022-12-26T02:25:30.567Z,11.70
2022-12-26T02:28:32.264Z,12.30
2022-12-26T02:31:21.888Z,10.70
2022-12-26T02:34:01.628Z,12.50
2022-12-26T02:36:50.065Z,12.47
2022-12-26T02:39:43.609Z,12.47
2022-12-26T02:42:38.198Z,12.93
2022-12-26T02:45:43.633Z,13.03
2022-12-26T02:48:13.521Z,12.33
2022-12-26T02:51:36.745Z,14.33
2022-12-26T02:54:27.881Z,14.20
2022-12-26T02:57:24.423Z,13.77
2022-12-26T03:00:24.094Z,12.30
2022-12-26T03:03:17.177Z,13.57
2022-12-26T03:06:11.268Z,14.10
2022-12-26T03:09:03.354Z,14.87
2022-12-26T03:11:58.312Z,13.07
2022-12-26T03:14:33.105Z,12.00
2022-12-26T03:17:21.313Z,13.03
2022-12-26T03:20:17.942Z,12.77
2022-12-26T03:23:18.615Z,12.10
2022-12-26T03:26:09.656Z,11.30
2022-12-26T03:28:36.072Z,13.97
2022-12-26T03:31:07.795Z,14.17
2022-12-26T03:33:57.801Z,15.30
2022-12-26T03:36:35.160Z,14.07
2022-12-26T03:39:48.433Z,16.47
2022-12-26T03:43:01.109Z,15.73
2022-12-26T03:45:58.352Z,14.57
2022-12-26T03:48:53.957Z,15.10
2022-12-26T03:51:49.991Z,14.77
2022-12-26T03:54:43.047Z,14.60
2022-12-26T03:57:36.264Z,17.03
2022-12-26T04:00:28.420Z,15.70
2022-12-26T04:03:19.054Z,15.77
2022-12-26T04:06:08.124Z,16.87
2022-12-26T04:09:09.829Z,15.17
2022-12-26T04:11:57.956Z,15.20
2022-12-26T04:14:55.436Z,14.87
2022-12-26T04:18:15.429Z,14.60
2022-12-26T04:20:47.657Z,14.60
2022-12-26T04:23:44.882Z,14.37
2022-12-26T04:26:39.299Z,16.67
2022-12-26T04:29:24.524Z,15.90
2022-12-26T04:32:29.649Z,16.07
2022-12-26T04:35:36.822Z,14.03
2022-12-26T04:38:24.382Z,15.80
2022-12-26T04:41:16.885Z,15.00
2022-12-26T04:44:03.210Z,14.93
2022-12-26T04:46:31.991Z,13.37
2022-12-26T04:49:18.600Z,14.43
2022-12-26T04:51:44.991Z,15.00
2022-12-26T04:54:11.324Z,14.17
2022-12-26T04:56:37.770Z,13.63
2022-12-26T04:59:04.182Z,15.77
2022-12-26T05:01:49.411Z,13.50
2022-12-26T05:04:36.660Z,12.70
2022-12-26T05:07:24.012Z,14.33
2022-12-26T05:09:53.284Z,14.93
2022-12-26T05:12:20.546Z,14.07
2022-12-26T05:14:46.964Z,15.50
2022-12-26T05:17:32.543Z,15.10
2022-12-26T05:20:34.638Z,13.90
2022-12-26T05:23:21.107Z,12.20
2022-12-26T05:26:07.432Z,11.63
2022-12-26T05:28:43.069Z,11.73
2022-12-26T05:31:15.563Z,12.50
2022-12-26T05:34:01.212Z,11.00
2022-12-26T05:36:34.697Z,11.40
2022-12-26T05:39:01.805Z,11.30
2022-12-26T05:41:28.171Z,10.33
2022-12-26T05:43:54.564Z,11.30
2022-12-26T05:46:20.956Z,10.50
2022-12-26T05:48:47.314Z,10.90
2022-12-26T05:51:13.942Z,10.23
2022-12-26T05:53:40.454Z,10.70
2022-12-26T05:56:12.029Z,11.17
2022-12-26T05:58:39.285Z,10.63
2022-12-26T06:01:05.824Z,10.40
2022-12-26T06:03:32.904Z,11.73
2022-12-26T06:05:59.413Z,10.13
2022-12-26T06:08:25.748Z,9.53
2022-12-26T06:10:52.076Z,10.73
2022-12-26T06:13:18.411Z,10.37
2022-12-26T06:15:44.725Z,9.90
2022-12-26T06:18:11.058Z,10.33
2022-12-26T06:20:40.533Z,10.10
2022-12-26T06:23:07.001Z,10.60
2022-12-26T06:25:33.339Z,10.70
2022-12-26T06:27:59.700Z,10.63
2022-12-26T06:30:26.071Z,11.10
2022-12-26T06:32:52.381Z,10.03
2022-12-26T06:35:18.715Z,11.37
2022-12-26T06:37:45.044Z,10.77
2022-12-26T06:40:11.413Z,11.27
2022-12-26T06:42:37.739Z,9.73
2022-12-26T06:45:04.437Z,9.33
2022-12-26T06:47:30.797Z,9.93
2022-12-26T06:49:57.155Z,9.70
2022-12-26T06:52:23.500Z,8.17
2022-12-26T06:54:49.809Z,10.07
2022-12-26T06:57:16.179Z,8.77
2022-12-26T06:59:42.640Z,8.47
2022-12-26T07:02:11.007Z,8.70
2022-12-26T07:04:37.418Z,8.90
2022-12-26T07:07:03.828Z,9.20
2022-12-26T07:09:33.800Z,8.50
2022-12-26T07:12:01.555Z,8.77
2022-12-26T07:14:27.900Z,8.37
2022-12-26T07:16:54.552Z,8.43
2022-12-26T07:19:20.956Z,8.63
2022-12-26T07:21:47.276Z,8.30
2022-12-26T07:24:19.210Z,7.37
2022-12-26T07:26:46.670Z,8.00
2022-12-26T07:29:13.984Z,8.53
2022-12-26T07:31:41.180Z,7.50
2022-12-26T07:34:08.501Z,8.30
2022-12-26T07:36:34.913Z,8.00
2022-12-26T07:39:01.244Z,8.37
2022-12-26T07:41:47.526Z,8.57
2022-12-26T07:44:13.863Z,7.77
2022-12-26T07:46:40.242Z,8.50
2022-12-26T07:49:07.564Z,7.73
2022-12-26T07:51:34.062Z,8.13
2022-12-26T07:54:03.162Z,8.33
2022-12-26T07:56:34.179Z,7.80
2022-12-26T07:59:00.548Z,8.83
2022-12-26T08:01:28.042Z,8.10
2022-12-26T08:03:54.623Z,7.60
2022-12-26T08:06:21.269Z,7.70
2022-12-26T08:08:51.041Z,8.20
2022-12-26T08:11:21.317Z,7.90
2022-12-26T08:13:47.661Z,6.90
2022-12-26T08:16:15.086Z,7.83
2022-12-26T08:18:42.333Z,8.27
2022-12-26T08:21:09.029Z,7.40
2022-12-26T08:23:35.417Z,7.20
2022-12-26T08:26:09.567Z,6.97
2022-12-26T08:28:36.324Z,7.20
2022-12-26T08:31:09.822Z,7.50
2022-12-26T08:33:36.740Z,6.57
2022-12-26T08:36:08.605Z,6.60
2022-12-26T08:38:35.423Z,7.40
2022-12-26T08:41:02.259Z,7.23
2022-12-26T08:43:53.215Z,7.10
2022-12-26T08:46:16.388Z,7.37
2022-12-26T08:48:42.853Z,7.13
2022-12-26T08:51:15.877Z,6.77
2022-12-26T08:53:42.548Z,6.87
2022-12-26T08:56:13.424Z,6.27
2022-12-26T08:58:39.804Z,6.60
2022-12-26T09:01:12.768Z,5.90
2022-12-26T09:03:40.051Z,6.80
2022-12-26T09:06:06.870Z,6.10
2022-12-26T09:08:34.827Z,6.27
2022-12-26T09:11:06.414Z,6.33
2022-12-26T09:13:33.555Z,6.40
2022-12-26T09:16:08.008Z,7.13
2022-12-26T09:18:35.109Z,6.17
2022-12-26T09:21:06.917Z,6.00
2022-12-26T09:23:35.063Z,5.87
2022-12-26T09:26:06.904Z,5.60
2022-12-26T09:28:34.507Z,5.40
2022-12-26T09:31:10.012Z,6.00
2022-12-26T09:33:37.622Z,4.70
2022-12-26T09:36:14.793Z,4.63
2022-12-26T09:38:42.692Z,5.30
2022-12-26T09:41:30.959Z,5.17
2022-12-26T09:44:25.566Z,4.60
2022-12-26T09:47:25.216Z,4.67
2022-12-26T09:50:18.658Z,5.13
2022-12-26T09:53:05.659Z,4.37
2022-12-26T09:55:42.456Z,4.90
2022-12-26T09:58:27.881Z,4.10
2022-12-26T10:01:05.585Z,4.87
2022-12-26T10:03:38.492Z,4.70
2022-12-26T10:06:15.624Z,4.97
2022-12-26T10:08:52.490Z,4.93
2022-12-26T10:11:55.263Z,5.37
2022-12-26T10:14:35.800Z,5.40
2022-12-26T10:17:11.324Z,6.27
2022-12-26T10:19:48.650Z,6.67
2022-12-26T10:22:31.398Z,6.20
2022-12-26T10:25:01.275Z,6.00
2022-12-26T10:27:31.818Z,6.70
2022-12-26T10:30:03.452Z,6.83
2022-12-26T10:32:38.235Z,5.20
2022-12-26T10:35:23.480Z,6.23
2022-12-26T10:37:52.936Z,5.60
2022-12-26T10:40:26.991Z,6.27
2022-12-26T10:42:59.434Z,6.63
2022-12-26T10:45:37.844Z,6.00
2022-12-26T10:48:04.750Z,5.60
2022-12-26T10:50:33.155Z,6.80
2022-12-26T10:53:01.177Z,5.87
2022-12-26T10:55:35.033Z,5.17
2022-12-26T10:58:13.281Z,5.80
2022-12-26T11:00:39.595Z,5.03
2022-12-26T11:03:07.431Z,5.87
2022-12-26T11:06:06.361Z,5.50
2022-12-26T11:08:43.016Z,4.00
2022-12-26T11:11:14.847Z,3.83
2022-12-26T11:13:52.628Z,3.90
2022-12-26T11:16:31.511Z,3.20
2022-12-26T11:18:58.637Z,3.30
2022-12-26T11:21:28.226Z,2.80
2022-12-26T11:24:06.819Z,3.17
2022-12-26T11:26:33.184Z,2.67
2022-12-26T11:29:14.969Z,2.63
2022-12-26T11:31:43.840Z,2.70
2022-12-26T11:34:17.194Z,2.50
2022-12-26T11:36:50.812Z,2.37
2022-12-26T11:39:30.387Z,2.23
2022-12-26T11:41:57.640Z,2.10
2022-12-26T11:44:28.520Z,1.90
2022-12-26T11:47:16.388Z,2.10
2022-12-26T11:49:49.464Z,2.50
2022-12-26T11:52:38.554Z,2.07
2022-12-26T11:55:23.319Z,1.77
2022-12-26T11:58:02.086Z,2.10
2022-12-26T12:00:29.673Z,1.50
2022-12-26T12:02:56.043Z,1.70
2022-12-26T12:05:28.226Z,1.33
2022-12-26T12:08:16.449Z,1.70
2022-12-26T12:11:17.249Z,1.87
2022-12-26T12:13:57.795Z,1.80
2022-12-26T12:16:58.115Z,1.60
2022-12-26T12:19:33.282Z,1.93
2022-12-26T12:22:37.339Z,1.87
2022-12-26T12:25:35.580Z,1.60
2022-12-26T12:28:17.517Z,1.50
2022-12-26T12:30:56.896Z,1.30
2022-12-26T12:33:46.146Z,1.33
2022-12-26T12:36:18.581Z,1.33
2022-12-26T12:39:10.658Z,1.30
2022-12-26T12:41:48.855Z,1.57
2022-12-26T12:44:30.200Z,1.37
2022-12-26T12:47:20.670Z,1.17
2022-12-26T12:49:52.914Z,1.23
2022-12-26T12:52:41.905Z,1.33
2022-12-26T12:55:20.242Z,1.70
2022-12-26T12:57:50.996Z,1.00
2022-12-26T13:00:21.716Z,1.03
2022-12-26T13:03:11.050Z,1.30
2022-12-26T13:05:57.683Z,1.00
2022-12-26T13:08:46.968Z,1.00
2022-12-26T13:11:45.680Z,1.00
2022-12-26T13:14:22.068Z,1.27
2022-12-26T13:16:55.181Z,1.20
2022-12-26T13:19:28.823Z,1.13
2022-12-26T13:22:02.200Z,1.07
2022-12-26T13:24:48.752Z,1.70
2022-12-26T13:27:21.349Z,1.10
2022-12-26T13:29:48.847Z,1.00
2022-12-26T13:32:17.396Z,1.17
2022-12-26T13:34:45.819Z,0.67
2022-12-26T13:37:39.308Z,1.00
2022-12-26T13:40:21.494Z,0.87
2022-12-26T13:43:30.427Z,0.97
2022-12-26T13:45:57.821Z,1.33
2022-12-26T13:48:27.222Z,1.03
2022-12-26T13:50:56.690Z,1.17
2022-12-26T13:53:26.176Z,1.70
2022-12-26T13:56:02.684Z,1.50
2022-12-26T13:58:31.810Z,1.40
2022-12-26T14:01:25.838Z,1.00
2022-12-26T14:04:26.383Z,1.20
2022-12-26T14:07:24.054Z,1.30
2022-12-26T14:10:16.886Z,1.23
2022-12-26T14:13:07.744Z,1.67
2022-12-26T14:15:55.423Z,1.50
2022-12-26T14:18:46.520Z,1.60
2022-12-26T14:21:29.823Z,1.43
2022-12-26T14:24:26.922Z,1.93
2022-12-26T14:27:27.351Z,1.93
2022-12-26T14:30:06.782Z,1.60
2022-12-26T14:32:43.260Z,1.63
2022-12-26T14:35:34.153Z,1.73
2022-12-26T14:38:06.349Z,1.77
2022-12-26T14:40:36.172Z,1.50
2022-12-26T14:43:10.440Z,2.80
2022-12-26T14:45:36.766Z,1.57
2022-12-26T14:48:15.045Z,2.00
2022-12-26T14:50:49.337Z,1.90
2022-12-26T14:53:24.943Z,1.63
2022-12-26T14:55:54.040Z,1.63
2022-12-26T14:58:52.167Z,1.40
2022-12-26T15:01:21.634Z,1.97
2022-12-26T15:03:58.817Z,1.80
2022-12-26T15:06:25.083Z,2.00
2022-12-26T15:09:24.457Z,2.00
2022-12-26T15:12:04.643Z,1.70
2022-12-26T15:14:55.149Z,2.20
2022-12-26T15:17:33.738Z,1.57
2022-12-26T15:20:42.290Z,1.50
2022-12-26T15:23:26.884Z,2.03
2022-12-26T15:26:11.979Z,1.33
2022-12-26T15:29:22.635Z,1.90
2022-12-26T15:32:09.621Z,2.30
2022-12-26T15:35:03.659Z,2.30
2022-12-26T15:37:51.784Z,1.30
2022-12-26T15:40:28.613Z,1.90
2022-12-26T15:43:31.168Z,1.80
2022-12-26T15:46:05.582Z,1.50
2022-12-26T15:48:50.499Z,1.67
2022-12-26T15:51:28.981Z,1.77
2022-12-26T15:54:22.752Z,1.97
2022-12-26T15:57:15.960Z,1.63
2022-12-26T15:59:57.570Z,1.40
2022-12-26T16:02:27.025Z,1.97
2022-12-26T16:05:01.171Z,2.00
2022-12-26T16:07:49.345Z,2.00
2022-12-26T16:10:28.221Z,1.77
2022-12-26T16:13:22.501Z,1.80
2022-12-26T16:15:56.810Z,1.70
2022-12-26T16:18:29.102Z,1.67
2022-12-26T16:21:17.348Z,2.23
2022-12-26T16:23:45.578Z,2.17
2022-12-26T16:26:29.049Z,1.87
2022-12-26T16:28:57.493Z,1.87
2022-12-26T16:31:26.391Z,1.87
2022-12-26T16:33:56.987Z,2.33
2022-12-26T16:36:26.854Z,1.97
2022-12-26T16:38:54.085Z,2.00
2022-12-26T16:41:27.898Z,2.37
2022-12-26T16:43:56.131Z,2.80
2022-12-26T16:46:28.714Z,2.00
2022-12-26T16:49:01.124Z,2.30
2022-12-26T16:51:54.795Z,3.00
2022-12-26T16:54:21.107Z,3.03
2022-12-26T16:56:57.227Z,3.67
2022-12-26T16:59:28.748Z,2.40
2022-12-26T17:01:57.991Z,3.10
2022-12-26T17:04:27.182Z,2.80
2022-12-26T17:06:57.521Z,3.00
2022-12-26T17:09:26.615Z,3.20
2022-12-26T17:11:58.959Z,3.40
2022-12-26T17:14:31.032Z,3.40
2022-12-26T17:17:03.835Z,3.80
2022-12-26T17:19:35.963Z,3.60
2022-12-26T17:22:20.688Z,3.50
2022-12-26T17:24:51.606Z,3.20
2022-12-26T17:27:24.881Z,3.10
2022-12-26T17:30:00.452Z,3.63
2022-12-26T17:32:36.390Z,2.93
2022-12-26T17:35:06.518Z,3.57
2022-12-26T17:37:33.792Z,3.40
2022-12-26T17:40:19.693Z,3.53
2022-12-26T17:42:52.790Z,3.57
2022-12-26T17:45:25.229Z,2.90
2022-12-26T17:47:53.751Z,2.40
2022-12-26T17:50:21.654Z,2.40
2022-12-26T17:52:48.413Z,2.60
2022-12-26T17:55:20.956Z,2.63
2022-12-26T17:57:48.679Z,2.20
2022-12-26T18:00:18.362Z,2.00
2022-12-26T18:02:44.863Z,2.20
2022-12-26T18:05:11.779Z,1.97
2022-12-26T18:07:38.199Z,1.93
2022-12-26T18:10:05.134Z,2.10
2022-12-26T18:12:31.456Z,1.90
2022-12-26T18:15:02.205Z,1.83
2022-12-26T18:17:31.909Z,2.00
2022-12-26T18:19:58.885Z,1.40
2022-12-26T18:22:25.272Z,2.13
2022-12-26T18:24:51.673Z,1.50
2022-12-26T18:27:27.235Z,1.90
2022-12-26T18:29:53.622Z,1.43
2022-12-26T18:32:24.560Z,1.73
2022-12-26T18:34:51.646Z,1.40
2022-12-26T18:37:18.688Z,1.40
2022-12-26T18:39:45.293Z,1.77
2022-12-26T18:42:13.783Z,1.30
2022-12-26T18:44:41.023Z,1.10
2022-12-26T18:47:09.469Z,1.00
2022-12-26T18:49:35.812Z,1.20
2022-12-26T18:52:02.188Z,1.30
2022-12-26T18:54:28.519Z,1.30
2022-12-26T18:56:54.898Z,0.90
2022-12-26T18:59:21.248Z,1.07
2022-12-26T19:01:47.727Z,1.10
2022-12-26T19:04:17.540Z,1.00
2022-12-26T19:06:43.885Z,0.80
2022-12-26T19:09:14.229Z,1.03
2022-12-26T19:11:42.066Z,0.80
2022-12-26T19:14:16.186Z,1.27
2022-12-26T19:16:42.679Z,1.40
2022-12-26T19:19:09.171Z,2.40
2022-12-26T19:21:35.549Z,1.50
2022-12-26T19:24:01.943Z,1.10
2022-12-26T19:26:28.368Z,1.10
2022-12-26T19:28:55.822Z,1.40
2022-12-26T19:31:23.670Z,1.00
2022-12-26T19:33:50.123Z,1.20
2022-12-26T19:36:17.347Z,1.00
2022-12-26T19:38:43.810Z,1.40
2022-12-26T19:41:12.796Z,1.90
2022-12-26T19:43:40.117Z,1.43
2022-12-26T19:46:11.184Z,1.50
2022-12-26T19:48:38.719Z,1.40
2022-12-26T19:51:08.333Z,1.30
2022-12-26T19:53:36.181Z,3.00
2022-12-26T19:56:10.900Z,0.90
2022-12-26T19:58:37.920Z,1.60
2022-12-26T20:01:16.285Z,1.00
2022-12-26T20:03:44.417Z,1.27
2022-12-26T20:06:14.984Z,1.13
2022-12-26T20:08:42.556Z,1.30
2022-12-26T20:11:14.883Z,1.00
2022-12-26T20:13:42.988Z,0.97
2022-12-26T20:16:45.995Z,0.90
2022-12-26T20:19:01.156Z,0.90
2022-12-26T20:21:27.816Z,1.10
2022-12-26T20:23:54.179Z,1.00
2022-12-26T20:26:23.239Z,1.10
2022-12-26T20:28:50.681Z,1.30
2022-12-26T20:31:21.119Z,1.13
2022-12-26T20:33:49.441Z,1.13
2022-12-26T20:36:19.919Z,1.17
2022-12-26T20:38:46.548Z,1.10
2022-12-26T20:41:13.215Z,1.20
2022-12-26T20:43:40.521Z,1.27
2022-12-26T20:46:16.933Z,1.07
2022-12-26T20:48:44.127Z,1.00
2022-12-26T20:51:13.795Z,1.60
2022-12-26T20:53:41.361Z,1.20
2022-12-26T20:56:08.309Z,1.17
2022-12-26T20:58:35.614Z,1.27
2022-12-26T21:01:07.249Z,1.10
2022-12-26T21:03:35.123Z,1.10
2022-12-26T21:06:13.225Z,0.93
2022-12-26T21:08:41.481Z,1.10
2022-12-26T21:11:16.253Z,1.00
2022-12-26T21:13:44.365Z,0.90
2022-12-26T21:16:16.159Z,1.00
2022-12-26T21:18:42.546Z,1.00
2022-12-26T21:21:15.228Z,1.13
2022-12-26T21:23:42.069Z,1.13
2022-12-26T21:26:09.338Z,0.90
2022-12-26T21:28:36.365Z,0.90
2022-12-26T21:31:03.424Z,1.00
2022-12-26T21:33:30.837Z,0.80
2022-12-26T21:35:57.297Z,0.80
2022-12-26T21:38:27.294Z,1.00
2022-12-26T21:40:53.621Z,0.80
2022-12-26T21:43:19.957Z,0.60
2022-12-26T21:45:46.287Z,1.20
2022-12-26T21:48:12.624Z,1.23
2022-12-26T21:50:44.013Z,0.83
2022-12-26T21:53:10.874Z,1.17
2022-12-26T21:55:38.561Z,1.13
2022-12-26T21:58:07.351Z,0.80
2022-12-26T22:00:35.260Z,0.90
2022-12-26T22:03:21.548Z,0.70
2022-12-26T22:05:48.222Z,1.20
2022-12-26T22:08:15.077Z,0.90
2022-12-26T22:11:04.993Z,0.87
2022-12-26T22:13:39.544Z,1.20
2022-12-26T22:16:08.522Z,1.23
2022-12-26T22:18:43.247Z,1.20
2022-12-26T22:21:13.571Z,0.93
2022-12-26T22:23:40.764Z,0.90
2022-12-26T22:26:08.493Z,1.07
2022-12-26T22:28:34.921Z,1.00
2022-12-26T22:31:01.626Z,1.10
2022-12-26T22:33:28.844Z,0.70
2022-12-26T22:35:55.777Z,1.00
2022-12-26T22:38:22.272Z,0.90
2022-12-26T22:40:59.299Z,1.20
2022-12-26T22:43:26.568Z,1.10
2022-12-26T22:45:53.513Z,1.03
2022-12-26T22:48:20.313Z,1.00
2022-12-26T22:50:50.689Z,1.20
2022-12-26T22:53:17.039Z,1.40
2022-12-26T22:55:57.582Z,0.90
2022-12-26T22:58:24.016Z,1.10
2022-12-26T23:00:50.383Z,0.80
2022-12-26T23:03:16.859Z,1.30
2022-12-26T23:05:43.774Z,1.27
2022-12-26T23:08:17.266Z,1.13
2022-12-26T23:10:44.401Z,1.00
2022-12-26T23:13:12.590Z,1.00
2022-12-26T23:15:50.062Z,1.27
2022-12-26T23:18:51.140Z,1.00
2022-12-26T23:21:43.715Z,1.80
2022-12-26T23:24:18.128Z,1.53
2022-12-26T23:27:20.833Z,1.43
2022-12-26T23:30:06.658Z,1.60
2022-12-26T23:32:34.345Z,1.20
2022-12-26T23:35:00.921Z,1.07
2022-12-26T23:37:27.252Z,0.90
2022-12-26T23:39:53.583Z,1.40
2022-12-26T23:42:19.908Z,1.00
2022-12-26T23:44:46.283Z,2.00
2022-12-26T23:47:12.624Z,1.00
2022-12-26T23:49:39.059Z,1.87
2022-12-26T23:52:05.467Z,1.63
2022-12-26T23:54:31.824Z,1.10
2022-12-26T23:56:58.520Z,1.60
2022-12-26T23:59:24.995Z,1.07
